createdAt,value
2019-02-17T07:39:22.021Z,15.97
2019-02-17T07:41:51.249Z,22.10
2019-02-17T07:44:19.937Z,20.17
2019-02-17T07:46:48.613Z,19.70
2019-02-17T07:49:17.297Z,15.10
2019-02-17T07:51:45.977Z,12.93
2019-02-17T07:54:14.665Z,16.80
2019-02-17T07:56:43.351Z,15.20
2019-02-17T07:59:12.026Z,18.27
2019-02-17T08:01:45.215Z,17.47
2019-02-17T08:04:11.138Z,13.50
2019-02-17T08:06:39.877Z,14.53
2019-02-17T08:09:08.542Z,14.33
2019-02-17T08:11:37.224Z,15.80
2019-02-17T08:14:05.891Z,16.80
2019-02-17T08:16:34.573Z,16.23
2019-02-17T08:19:03.237Z,18.37
2019-02-17T08:21:31.915Z,16.70
2019-02-17T08:24:00.592Z,18.80
2019-02-17T08:26:29.261Z,18.07
2019-02-17T08:28:57.962Z,21.23
2019-02-17T08:31:26.973Z,18.53
2019-02-17T08:33:56.540Z,14.80
2019-02-17T08:36:25.220Z,17.77
2019-02-17T08:38:53.885Z,14.53
2019-02-17T08:41:22.564Z,16.73
2019-02-17T08:43:51.241Z,17.33
2019-02-17T08:46:19.984Z,15.17
2019-02-17T08:48:48.664Z,17.13
2019-02-17T08:51:17.349Z,19.07
2019-02-17T08:53:46.012Z,16.57
2019-02-17T08:56:14.697Z,15.73
2019-02-17T08:58:43.357Z,15.70
2019-02-17T09:01:12.077Z,12.77
2019-02-17T09:03:40.754Z,16.17
2019-02-17T09:06:09.433Z,16.47
2019-02-17T09:08:38.088Z,15.53
2019-02-17T09:11:06.773Z,16.43
2019-02-17T09:13:35.434Z,14.60
2019-02-17T09:16:04.112Z,17.87
2019-02-17T09:18:32.781Z,16.23
2019-02-17T09:21:01.473Z,16.43
2019-02-17T09:23:30.213Z,16.10
2019-02-17T09:25:58.898Z,14.53
2019-02-17T09:28:27.566Z,15.27
2019-02-17T09:30:56.241Z,18.37
2019-02-17T09:33:24.910Z,14.57
2019-02-17T09:35:53.590Z,21.00
2019-02-17T09:38:22.257Z,15.87
2019-02-17T09:40:50.929Z,19.97
2019-02-17T09:43:19.610Z,15.33
2019-02-17T09:45:48.286Z,17.17
2019-02-17T09:48:16.959Z,17.03
2019-02-17T09:50:45.770Z,17.00
2019-02-17T09:53:14.481Z,18.20
2019-02-17T09:55:43.234Z,14.27
2019-02-17T09:58:12.284Z,22.73
2019-02-17T10:00:40.994Z,19.87
2019-02-17T10:03:09.712Z,23.10
2019-02-17T10:05:38.372Z,20.17
2019-02-17T10:08:07.045Z,17.03
2019-02-17T10:10:35.713Z,20.50
2019-02-17T10:13:04.389Z,18.87
2019-02-17T10:15:33.067Z,15.53
2019-02-17T10:18:01.741Z,21.37
2019-02-17T10:20:30.501Z,26.33
2019-02-17T10:22:59.186Z,18.60
2019-02-17T10:25:27.840Z,17.17
2019-02-17T10:27:56.527Z,15.93
2019-02-17T10:30:25.261Z,17.00
2019-02-17T10:32:53.965Z,20.20
2019-02-17T10:35:22.628Z,16.90
2019-02-17T10:37:51.305Z,21.57
2019-02-17T10:40:19.993Z,19.87
2019-02-17T10:42:48.686Z,17.20
2019-02-17T10:45:17.348Z,22.63
2019-02-17T10:47:46.008Z,19.50
2019-02-17T10:50:14.755Z,21.57
2019-02-17T10:52:43.488Z,21.23
2019-02-17T10:55:12.635Z,25.60
2019-02-17T10:57:41.477Z,26.83
2019-02-17T11:00:12.775Z,22.73
2019-02-17T11:02:47.262Z,21.07
2019-02-17T11:05:12.085Z,22.33
2019-02-17T11:07:40.776Z,25.93
2019-02-17T11:10:10.049Z,20.33
2019-02-17T11:12:38.740Z,23.80
2019-02-17T11:15:09.354Z,24.07
2019-02-17T11:17:38.028Z,22.33
2019-02-17T11:20:06.877Z,19.90
2019-02-17T11:22:35.553Z,21.13
2019-02-17T11:25:04.387Z,19.70
2019-02-17T11:27:33.057Z,18.27
2019-02-17T11:30:01.721Z,22.83
2019-02-17T11:32:32.185Z,19.50
2019-02-17T11:35:00.868Z,20.70
2019-02-17T11:37:29.620Z,25.90
2019-02-17T11:39:58.381Z,22.10
2019-02-17T11:42:27.083Z,25.07
2019-02-17T11:44:55.759Z,24.63
2019-02-17T11:47:24.433Z,22.83
2019-02-17T11:49:53.105Z,23.77
2019-02-17T11:52:21.783Z,25.00
2019-02-17T11:54:50.453Z,25.60
2019-02-17T11:57:19.137Z,26.30
2019-02-17T11:59:48.029Z,21.87
2019-02-17T12:02:24.744Z,28.60
2019-02-17T12:04:47.274Z,20.83
2019-02-17T12:07:16.013Z,29.93
2019-02-17T12:09:44.783Z,28.87
2019-02-17T12:12:13.790Z,25.83
2019-02-17T12:14:42.631Z,27.17
2019-02-17T12:17:11.365Z,26.00
2019-02-17T12:19:40.048Z,24.63
2019-02-17T12:22:22.504Z,27.17
2019-02-17T12:25:13.191Z,28.67
2019-02-17T12:27:49.173Z,24.57
2019-02-17T12:30:21.333Z,24.97
2019-02-17T12:32:50.016Z,26.63
2019-02-17T12:35:18.773Z,22.90
2019-02-17T12:37:47.590Z,19.90
2019-02-17T12:40:16.394Z,24.67
2019-02-17T12:42:45.099Z,27.37
2019-02-17T12:45:18.122Z,25.83
2019-02-17T12:47:45.231Z,21.07
2019-02-17T12:50:13.975Z,22.77
2019-02-17T12:52:47.100Z,17.07
2019-02-17T12:55:13.041Z,20.30
2019-02-17T12:57:41.714Z,22.67
2019-02-17T13:00:14.477Z,18.97
2019-02-17T13:02:43.223Z,21.43
2019-02-17T13:05:11.980Z,22.30
2019-02-17T13:07:42.727Z,22.33
2019-02-17T13:10:11.290Z,23.10
2019-02-17T13:12:39.958Z,22.80
2019-02-17T13:15:09.918Z,22.77
2019-02-17T13:17:38.593Z,16.73
2019-02-17T13:20:09.432Z,22.10
2019-02-17T13:22:38.113Z,22.37
2019-02-17T13:25:08.308Z,21.33
2019-02-17T13:27:37.057Z,17.23
2019-02-17T13:30:08.051Z,16.27
2019-02-17T13:32:36.768Z,21.13
2019-02-17T13:35:05.551Z,22.43
2019-02-17T13:37:34.251Z,18.90
2019-02-17T13:40:02.929Z,20.57
2019-02-17T13:42:31.614Z,19.90
2019-02-17T13:45:00.298Z,19.70
2019-02-17T13:47:28.969Z,17.57
2019-02-17T13:49:57.649Z,20.70
2019-02-17T13:52:26.321Z,19.07
2019-02-17T13:54:55.003Z,18.30
2019-02-17T13:57:23.677Z,20.70
2019-02-17T13:59:52.493Z,20.13
2019-02-17T14:02:21.338Z,23.10
2019-02-17T14:04:50.021Z,21.33
2019-02-17T14:07:18.703Z,18.53
2019-02-17T14:09:47.385Z,17.17
2019-02-17T14:12:16.068Z,15.80
2019-02-17T14:14:44.757Z,19.53
2019-02-17T14:17:13.429Z,19.97
2019-02-17T14:19:42.113Z,18.47
2019-02-17T14:22:10.786Z,15.37
2019-02-17T14:24:39.469Z,15.40
2019-02-17T14:27:08.145Z,16.60
2019-02-17T14:29:37.310Z,14.80
2019-02-17T14:32:05.987Z,19.20
2019-02-17T14:34:34.669Z,18.10
2019-02-17T14:37:03.341Z,15.60
2019-02-17T14:39:32.034Z,16.87
2019-02-17T14:42:00.733Z,13.47
2019-02-17T14:44:29.387Z,14.60
2019-02-17T14:46:58.053Z,15.77
2019-02-17T14:49:26.737Z,18.30
2019-02-17T14:51:55.410Z,18.13
2019-02-17T14:54:24.093Z,17.47
2019-02-17T14:56:52.868Z,15.33
2019-02-17T14:59:21.560Z,19.87
2019-02-17T15:01:50.291Z,18.80
2019-02-17T15:04:18.968Z,21.03
2019-02-17T15:06:47.645Z,22.07
2019-02-17T15:09:16.341Z,14.23
2019-02-17T15:11:45.001Z,13.77
2019-02-17T15:14:13.780Z,15.63
2019-02-17T15:16:42.576Z,13.57
2019-02-17T15:19:11.398Z,16.97
2019-02-17T15:21:40.057Z,16.23
2019-02-17T15:24:27.995Z,17.33
2019-02-17T15:26:56.760Z,18.47
2019-02-17T15:29:25.465Z,18.70
2019-02-17T15:31:54.188Z,14.53
2019-02-17T15:34:22.854Z,16.87
2019-02-17T15:36:51.539Z,17.13
2019-02-17T15:39:20.196Z,18.70
2019-02-17T15:41:48.876Z,15.67
2019-02-17T15:44:17.536Z,15.33
2019-02-17T15:46:46.209Z,14.07
2019-02-17T15:49:14.869Z,14.77
2019-02-17T15:51:43.551Z,16.67
2019-02-17T15:54:12.206Z,14.27
2019-02-17T15:56:40.888Z,16.27
2019-02-17T15:59:09.586Z,14.17
2019-02-17T16:01:38.282Z,14.23
2019-02-17T16:04:06.946Z,12.83
2019-02-17T16:06:35.640Z,15.20
2019-02-17T16:09:05.419Z,9.57
2019-02-17T16:11:34.097Z,12.40
2019-02-17T16:14:02.761Z,12.97
2019-02-17T16:16:31.438Z,12.53
2019-02-17T16:19:00.106Z,13.00
2019-02-17T16:21:28.814Z,11.17
2019-02-17T16:23:57.475Z,11.10
2019-02-17T16:26:26.162Z,12.97
2019-02-17T16:28:54.847Z,15.27
2019-02-17T16:31:23.531Z,16.53
2019-02-17T16:33:52.202Z,12.90
2019-02-17T16:36:20.891Z,13.63
2019-02-17T16:38:49.557Z,17.10
2019-02-17T16:41:18.300Z,14.03
2019-02-17T16:43:58.640Z,18.67
2019-02-17T16:46:27.328Z,14.57
2019-02-17T16:48:56.000Z,18.97
2019-02-17T16:51:24.676Z,12.93
2019-02-17T16:53:53.351Z,16.07
2019-02-17T16:56:22.113Z,16.97
2019-02-17T16:58:50.777Z,15.63
2019-02-17T17:01:19.541Z,15.80
2019-02-17T17:03:48.211Z,15.07
2019-02-17T17:06:16.898Z,14.30
2019-02-17T17:08:45.569Z,20.43
2019-02-17T17:11:14.242Z,17.67
2019-02-17T17:13:42.910Z,16.40
2019-02-17T17:16:11.576Z,17.90
2019-02-17T17:18:40.241Z,22.43
2019-02-17T17:21:09.061Z,16.60
2019-02-17T17:23:37.721Z,18.40
2019-02-17T17:26:06.407Z,20.77
2019-02-17T17:28:35.069Z,21.57
2019-02-17T17:31:03.753Z,22.60
2019-02-17T17:33:32.423Z,18.77
2019-02-17T17:36:01.095Z,19.17
2019-02-17T17:38:29.768Z,22.53
2019-02-17T17:40:58.443Z,20.47
2019-02-17T17:43:27.112Z,20.40
2019-02-17T17:45:55.791Z,20.90
2019-02-17T17:48:24.574Z,19.27
2019-02-17T17:50:53.230Z,18.10
2019-02-17T17:53:21.911Z,17.83
2019-02-17T17:55:50.570Z,18.63
2019-02-17T17:58:19.265Z,18.87
2019-02-17T18:00:47.929Z,15.90
2019-02-17T18:03:16.609Z,15.97
2019-02-17T18:05:45.268Z,16.03
2019-02-17T18:08:13.949Z,17.13
2019-02-17T18:10:42.620Z,17.30
2019-02-17T18:13:11.311Z,15.03
2019-02-17T18:15:39.969Z,16.80
2019-02-17T18:18:08.644Z,27.70
2019-02-17T18:20:37.321Z,23.10
2019-02-17T18:23:06.396Z,21.97
2019-02-17T18:25:35.071Z,15.67
2019-02-17T18:28:03.793Z,18.03
2019-02-17T18:30:32.562Z,17.77
2019-02-17T18:33:01.261Z,17.80
2019-02-17T18:35:29.926Z,16.30
2019-02-17T18:37:58.685Z,15.47
2019-02-17T18:40:27.350Z,13.97
2019-02-17T18:42:56.037Z,15.53
2019-02-17T18:45:24.723Z,15.00
2019-02-17T18:47:53.402Z,15.50
2019-02-17T18:50:22.141Z,16.03
2019-02-17T18:52:50.829Z,15.70
2019-02-17T18:55:19.502Z,18.20
2019-02-17T18:57:50.713Z,15.77
2019-02-17T19:00:18.705Z,14.77
2019-02-17T19:02:47.377Z,15.93
2019-02-17T19:05:16.032Z,14.80
2019-02-17T19:07:44.718Z,16.40
2019-02-17T19:10:13.485Z,33.33
2019-02-17T19:12:42.256Z,40.67
2019-02-17T19:15:12.265Z,33.80
2019-02-17T19:17:40.939Z,26.13
2019-02-17T19:20:11.785Z,38.87
2019-02-17T19:22:40.470Z,27.43
2019-02-17T19:25:09.557Z,25.73
2019-02-17T19:27:38.277Z,21.93
2019-02-17T19:30:07.925Z,20.73
2019-02-17T19:32:36.605Z,22.37
2019-02-17T19:35:06.644Z,23.83
2019-02-17T19:37:35.322Z,23.37
2019-02-17T19:40:04.348Z,23.50
2019-02-17T19:42:33.139Z,22.00
2019-02-17T19:45:01.830Z,35.23
2019-02-17T19:47:30.540Z,40.57
2019-02-17T19:49:59.173Z,29.37
2019-02-17T19:52:27.811Z,30.17
2019-02-17T19:54:56.446Z,28.80
2019-02-17T19:57:25.193Z,26.97
2019-02-17T19:59:53.818Z,26.63
2019-02-17T20:02:35.449Z,22.97
2019-02-17T20:05:07.151Z,21.20
2019-02-17T20:07:35.899Z,19.97
2019-02-17T20:10:05.457Z,20.10
2019-02-17T20:12:34.143Z,19.63
2019-02-17T20:15:02.889Z,20.23
2019-02-17T20:17:31.561Z,24.13
2019-02-17T20:20:00.328Z,21.00
2019-02-17T20:22:29.011Z,20.97
2019-02-17T20:24:57.700Z,19.60
2019-02-17T20:27:26.387Z,19.60
2019-02-17T20:29:55.092Z,16.60
2019-02-17T20:32:23.879Z,22.27
2019-02-17T20:34:52.669Z,18.63
2019-02-17T20:37:21.348Z,34.93
2019-02-17T20:39:50.042Z,22.67
2019-02-17T20:42:18.721Z,22.50
2019-02-17T20:44:47.408Z,23.57
2019-02-17T20:47:16.085Z,23.77
2019-02-17T20:49:44.774Z,30.57
2019-02-17T20:52:13.445Z,26.57
2019-02-17T20:54:42.104Z,27.23
2019-02-17T20:57:10.757Z,27.33
2019-02-17T20:59:39.416Z,30.00
2019-02-17T21:02:08.580Z,27.00
2019-02-17T21:04:37.252Z,37.23
2019-02-17T21:07:05.933Z,42.67
2019-02-17T21:09:34.672Z,34.33
2019-02-17T21:12:03.329Z,37.80
2019-02-17T21:14:32.069Z,31.63
2019-02-17T21:17:00.717Z,34.60
2019-02-17T21:19:29.386Z,39.87
2019-02-17T21:21:58.052Z,30.80
2019-02-17T21:24:26.737Z,28.17
